LAN9950 SCVD-SCEL
Flight info
| Callsign | LAN9950 |
|---|---|
| Flight time | 1h 5m |
| Altitude | 38000 |
| Route | ASAKU1J ASAKU UQ810 EROLO EROLO8A |
| Aircraft | A320/M-SDE3FGHIRWY/LB1 |
Departure
| Time | 2026-05-04 02:13 |
|---|---|
| Airport | Pichoy Airport (SCVD) |
Arrival
| Time | 2026-05-04 03:18 |
|---|---|
| Airport | Comodoro Arturo Merino Benítez International Airport (SCEL) |
| Time | Latitude | Longitude | Altitude | Speed | Heading |
|---|---|---|---|---|---|
| 2026-05-04 02:07 | -39.65059 | -73.08280 | 66 ft | 0 kts | 178° |
| 2026-05-04 02:08 | -39.65063 | -73.08280 | 64 ft | 3 kts | 178° |
| 2026-05-04 02:08 | -39.65082 | -73.08288 | 62 ft | 5 kts | 211° |
| 2026-05-04 02:08 | -39.65098 | -73.08346 | 71 ft | 10 kts | 269° |
| 2026-05-04 02:09 | -39.65100 | -73.08428 | 71 ft | 10 kts | 262° |
| 2026-05-04 02:09 | -39.65152 | -73.08486 | 66 ft | 13 kts | 207° |
| 2026-05-04 02:09 | -39.65250 | -73.08554 | 65 ft | 20 kts | 208° |
| 2026-05-04 02:09 | -39.65388 | -73.08612 | 66 ft | 23 kts | 180° |
| 2026-05-04 02:10 | -39.65563 | -73.08603 | 67 ft | 26 kts | 179° |
| 2026-05-04 02:10 | -39.65745 | -73.08597 | 66 ft | 20 kts | 175° |
| 2026-05-04 02:10 | -39.65833 | -73.08582 | 72 ft | 8 kts | 152° |
| 2026-05-04 02:10 | -39.65886 | -73.08527 | 68 ft | 7 kts | 165° |
| 2026-05-04 02:11 | -39.65909 | -73.08583 | 69 ft | 6 kts | 283° |
| 2026-05-04 02:11 | -39.65893 | -73.08592 | 68 ft | 0 kts | 2° |
| 2026-05-04 02:12 | -39.65892 | -73.08592 | 68 ft | 0 kts | 2° |
| 2026-05-04 02:12 | -39.65684 | -73.08595 | 66 ft | 79 kts | 358° |
| 2026-05-04 02:13 | -39.64794 | -73.08623 | 172 ft | 165 kts | 359° |
| 2026-05-04 02:13 | -39.63536 | -73.08572 | 1005 ft | 194 kts | 7° |
| 2026-05-04 02:13 | -39.62140 | -73.08280 | 2024 ft | 210 kts | 9° |
| 2026-05-04 02:13 | -39.60658 | -73.07882 | 3047 ft | 221 kts | 10° |
| 2026-05-04 02:14 | -39.59127 | -73.07409 | 4064 ft | 232 kts | 10° |
| 2026-05-04 02:14 | -39.57513 | -73.06916 | 5197 ft | 246 kts | 9° |
| 2026-05-04 02:14 | -39.55814 | -73.06386 | 6323 ft | 261 kts | 10° |
| 2026-05-04 02:14 | -39.53995 | -73.05813 | 7217 ft | 275 kts | 9° |
| 2026-05-04 02:15 | -39.52132 | -73.05264 | 8475 ft | 275 kts | 7° |
| 2026-05-04 02:15 | -39.50240 | -73.04757 | 9587 ft | 281 kts | 5° |
| 2026-05-04 02:15 | -39.48290 | -73.04255 | 10454 ft | 295 kts | 5° |
| 2026-05-04 02:15 | -39.46204 | -73.03723 | 11121 ft | 313 kts | 5° |
| 2026-05-04 02:16 | -39.44048 | -73.03155 | 12017 ft | 321 kts | 5° |
| 2026-05-04 02:16 | -39.41841 | -73.02554 | 12924 ft | 327 kts | 5° |
| 2026-05-04 02:16 | -39.39592 | -73.01933 | 13832 ft | 333 kts | 5° |
| 2026-05-04 02:16 | -39.37308 | -73.01299 | 14674 ft | 338 kts | 4° |
| 2026-05-04 02:17 | -39.34987 | -73.00651 | 15524 ft | 343 kts | 4° |
| 2026-05-04 02:17 | -39.32609 | -72.99989 | 16399 ft | 348 kts | 4° |
| 2026-05-04 02:17 | -39.30250 | -72.99335 | 17262 ft | 354 kts | 3° |
| 2026-05-04 02:17 | -39.27793 | -72.98656 | 18114 ft | 359 kts | 3° |
| 2026-05-04 02:18 | -39.25366 | -72.97990 | 18863 ft | 364 kts | 2° |
| 2026-05-04 02:18 | -39.22871 | -72.97338 | 19648 ft | 368 kts | 1° |
| 2026-05-04 02:18 | -39.20314 | -72.96695 | 20413 ft | 372 kts | 1° |
| 2026-05-04 02:18 | -39.17757 | -72.96062 | 21150 ft | 376 kts | 0° |
| 2026-05-04 02:19 | -39.15169 | -72.95423 | 21879 ft | 381 kts | 0° |
| 2026-05-04 02:19 | -39.12585 | -72.94786 | 22594 ft | 385 kts | 0° |
| 2026-05-04 02:19 | -39.09936 | -72.94134 | 23329 ft | 390 kts | 360° |
| 2026-05-04 02:19 | -39.07253 | -72.93472 | 24003 ft | 395 kts | 360° |
| 2026-05-04 02:20 | -39.04539 | -72.92797 | 24612 ft | 399 kts | 360° |
| 2026-05-04 02:20 | -39.01795 | -72.92113 | 25217 ft | 404 kts | 360° |
| 2026-05-04 02:20 | -38.99020 | -72.91417 | 25816 ft | 409 kts | 360° |
| 2026-05-04 02:20 | -38.96217 | -72.90715 | 26407 ft | 413 kts | 359° |
| 2026-05-04 02:21 | -38.93384 | -72.90009 | 26987 ft | 417 kts | 359° |
| 2026-05-04 02:21 | -38.90515 | -72.89296 | 27559 ft | 422 kts | 359° |
| 2026-05-04 02:21 | -38.87624 | -72.88580 | 28109 ft | 426 kts | 359° |
| 2026-05-04 02:21 | -38.85686 | -72.88099 | 28466 ft | 429 kts | 359° |
| 2026-05-04 02:22 | -38.82743 | -72.87369 | 28999 ft | 433 kts | 359° |
| 2026-05-04 02:22 | -38.79766 | -72.86628 | 29521 ft | 438 kts | 359° |
| 2026-05-04 02:22 | -38.76763 | -72.85877 | 30042 ft | 442 kts | 359° |
| 2026-05-04 02:22 | -38.73728 | -72.85119 | 30513 ft | 446 kts | 359° |
| 2026-05-04 02:23 | -38.70632 | -72.84351 | 31037 ft | 448 kts | 359° |
| 2026-05-04 02:23 | -38.67585 | -72.83592 | 31743 ft | 445 kts | 359° |
| 2026-05-04 02:23 | -38.64556 | -72.82836 | 32485 ft | 442 kts | 359° |
| 2026-05-04 02:23 | -38.61542 | -72.82085 | 33246 ft | 439 kts | 359° |
| 2026-05-04 02:24 | -38.58557 | -72.81341 | 33993 ft | 436 kts | 358° |
| 2026-05-04 02:24 | -38.55587 | -72.80606 | 34625 ft | 433 kts | 358° |
| 2026-05-04 02:24 | -38.52594 | -72.79871 | 35198 ft | 432 kts | 358° |
| 2026-05-04 02:24 | -38.49639 | -72.79155 | 35729 ft | 431 kts | 357° |
| 2026-05-04 02:25 | -38.46692 | -72.78440 | 36227 ft | 431 kts | 357° |
| 2026-05-04 02:25 | -38.43749 | -72.77722 | 36738 ft | 431 kts | 357° |
| 2026-05-04 02:25 | -38.40801 | -72.76996 | 37237 ft | 431 kts | 357° |
| 2026-05-04 02:25 | -38.37860 | -72.76270 | 37707 ft | 431 kts | 357° |
| 2026-05-04 02:26 | -38.34912 | -72.75542 | 38049 ft | 432 kts | 357° |
| 2026-05-04 02:26 | -38.31966 | -72.74815 | 38101 ft | 430 kts | 357° |
| 2026-05-04 02:26 | -38.26112 | -72.73372 | 38106 ft | 427 kts | 357° |
| 2026-05-04 02:27 | -38.20165 | -72.71948 | 38104 ft | 445 kts | 357° |
| 2026-05-04 02:27 | -38.14032 | -72.70467 | 38104 ft | 451 kts | 358° |
| 2026-05-04 02:28 | -38.07871 | -72.68940 | 38106 ft | 451 kts | 358° |
| 2026-05-04 02:28 | -38.01657 | -72.67415 | 38109 ft | 451 kts | 358° |
| 2026-05-04 02:29 | -37.95494 | -72.65917 | 38106 ft | 451 kts | 358° |
| 2026-05-04 02:29 | -37.89325 | -72.64427 | 38096 ft | 451 kts | 358° |
| 2026-05-04 02:30 | -37.83154 | -72.62940 | 38098 ft | 452 kts | 358° |
| 2026-05-04 02:30 | -37.76939 | -72.61439 | 38096 ft | 452 kts | 358° |
| 2026-05-04 02:31 | -37.70756 | -72.59951 | 38093 ft | 452 kts | 358° |
| 2026-05-04 02:31 | -37.64570 | -72.58468 | 38096 ft | 453 kts | 358° |
| 2026-05-04 02:32 | -37.58377 | -72.56655 | 38104 ft | 461 kts | 2° |
| 2026-05-04 02:32 | -37.52187 | -72.54462 | 38100 ft | 463 kts | 4° |
| 2026-05-04 02:33 | -37.45959 | -72.52227 | 38099 ft | 463 kts | 3° |
| 2026-05-04 02:33 | -37.39746 | -72.50108 | 38095 ft | 462 kts | 2° |
| 2026-05-04 02:34 | -37.33519 | -72.48055 | 38096 ft | 463 kts | 2° |
| 2026-05-04 02:34 | -37.27242 | -72.45979 | 38101 ft | 464 kts | 2° |
| 2026-05-04 02:35 | -37.21000 | -72.43895 | 38104 ft | 464 kts | 3° |
| 2026-05-04 02:35 | -37.14758 | -72.41801 | 38101 ft | 465 kts | 3° |
| 2026-05-04 02:36 | -37.08507 | -72.39712 | 38101 ft | 465 kts | 3° |
| 2026-05-04 02:36 | -37.02258 | -72.37640 | 38104 ft | 465 kts | 2° |
| 2026-05-04 02:37 | -36.96009 | -72.35569 | 38111 ft | 465 kts | 3° |
| 2026-05-04 02:37 | -36.89745 | -72.33493 | 38110 ft | 466 kts | 3° |
| 2026-05-04 02:38 | -36.83481 | -72.31419 | 38112 ft | 466 kts | 3° |
| 2026-05-04 02:38 | -36.77220 | -72.29353 | 38106 ft | 465 kts | 3° |
| 2026-05-04 02:39 | -36.70914 | -72.27281 | 38106 ft | 465 kts | 3° |
| 2026-05-04 02:39 | -36.64692 | -72.25235 | 38110 ft | 466 kts | 3° |
| 2026-05-04 02:40 | -36.58388 | -72.23157 | 38110 ft | 466 kts | 3° |
| 2026-05-04 02:40 | -36.52119 | -72.21098 | 38108 ft | 466 kts | 2° |
| 2026-05-04 02:41 | -36.45853 | -72.19056 | 38108 ft | 466 kts | 2° |
| 2026-05-04 02:41 | -36.39589 | -72.17013 | 38105 ft | 466 kts | 2° |
| 2026-05-04 02:42 | -36.33319 | -72.14966 | 38116 ft | 466 kts | 2° |
| 2026-05-04 02:42 | -36.27051 | -72.12915 | 38113 ft | 466 kts | 3° |
| 2026-05-04 02:43 | -36.20792 | -72.10804 | 38106 ft | 468 kts | 4° |
| 2026-05-04 02:43 | -36.14531 | -72.08558 | 38108 ft | 469 kts | 4° |
| 2026-05-04 02:44 | -36.08229 | -72.06282 | 38113 ft | 469 kts | 4° |
| 2026-05-04 02:44 | -36.01963 | -72.04050 | 38124 ft | 468 kts | 4° |
| 2026-05-04 02:45 | -35.95694 | -72.01853 | 38116 ft | 468 kts | 4° |
| 2026-05-04 02:45 | -35.89427 | -71.99666 | 38119 ft | 468 kts | 4° |
| 2026-05-04 02:46 | -35.83160 | -71.97466 | 38119 ft | 469 kts | 4° |
| 2026-05-04 02:46 | -35.76886 | -71.95254 | 38125 ft | 469 kts | 4° |
| 2026-05-04 02:47 | -35.70618 | -71.93054 | 38124 ft | 469 kts | 4° |
| 2026-05-04 02:47 | -35.65360 | -71.91214 | 38123 ft | 468 kts | 4° |
| 2026-05-04 02:48 | -35.59092 | -71.89024 | 38121 ft | 468 kts | 4° |
| 2026-05-04 02:48 | -35.52826 | -71.86840 | 38116 ft | 469 kts | 4° |
| 2026-05-04 02:49 | -35.46554 | -71.84655 | 38123 ft | 469 kts | 4° |
| 2026-05-04 02:49 | -35.40292 | -71.82311 | 38117 ft | 479 kts | 12° |
| 2026-05-04 02:50 | -35.34173 | -71.78934 | 38131 ft | 483 kts | 14° |
| 2026-05-04 02:50 | -35.28059 | -71.75523 | 38131 ft | 483 kts | 14° |
| 2026-05-04 02:51 | -35.21938 | -71.72118 | 38126 ft | 483 kts | 14° |
| 2026-05-04 02:51 | -35.15784 | -71.68698 | 38128 ft | 483 kts | 14° |
| 2026-05-04 02:52 | -35.09670 | -71.65307 | 38123 ft | 482 kts | 14° |
| 2026-05-04 02:52 | -35.03556 | -71.61932 | 38117 ft | 483 kts | 14° |
| 2026-05-04 02:53 | -34.97431 | -71.58552 | 38115 ft | 483 kts | 14° |
| 2026-05-04 02:53 | -34.91314 | -71.55175 | 38113 ft | 483 kts | 14° |
| 2026-05-04 02:54 | -34.85192 | -71.51811 | 38113 ft | 483 kts | 14° |
| 2026-05-04 02:54 | -34.79055 | -71.48454 | 38115 ft | 484 kts | 14° |
| 2026-05-04 02:55 | -34.72921 | -71.45097 | 37992 ft | 484 kts | 14° |
| 2026-05-04 02:55 | -34.69852 | -71.43414 | 37710 ft | 483 kts | 14° |
| 2026-05-04 02:55 | -34.66786 | -71.41732 | 37150 ft | 485 kts | 14° |
| 2026-05-04 02:56 | -34.63694 | -71.40056 | 36346 ft | 487 kts | 13° |
| 2026-05-04 02:56 | -34.60545 | -71.38431 | 35800 ft | 482 kts | 12° |
| 2026-05-04 02:56 | -34.57500 | -71.36921 | 35301 ft | 477 kts | 11° |
| 2026-05-04 02:56 | -34.54386 | -71.35424 | 34726 ft | 474 kts | 11° |
| 2026-05-04 02:57 | -34.51325 | -71.33968 | 34172 ft | 472 kts | 11° |
| 2026-05-04 02:57 | -34.48273 | -71.32504 | 33573 ft | 470 kts | 11° |
| 2026-05-04 02:57 | -34.45250 | -71.31036 | 33021 ft | 466 kts | 12° |
| 2026-05-04 02:57 | -34.42254 | -71.29568 | 32451 ft | 463 kts | 12° |
| 2026-05-04 02:58 | -34.39357 | -71.28141 | 31907 ft | 460 kts | 12° |
| 2026-05-04 02:58 | -34.36260 | -71.26612 | 31318 ft | 455 kts | 12° |
| 2026-05-04 02:58 | -34.33340 | -71.25170 | 30764 ft | 453 kts | 12° |
| 2026-05-04 02:58 | -34.30431 | -71.23736 | 30208 ft | 450 kts | 12° |
| 2026-05-04 02:59 | -34.27530 | -71.22316 | 29604 ft | 448 kts | 12° |
| 2026-05-04 02:59 | -34.24663 | -71.20914 | 29081 ft | 443 kts | 12° |
| 2026-05-04 02:59 | -34.21815 | -71.19525 | 28554 ft | 440 kts | 12° |
| 2026-05-04 02:59 | -34.18994 | -71.18152 | 28027 ft | 436 kts | 12° |
| 2026-05-04 03:00 | -34.16175 | -71.16785 | 27526 ft | 435 kts | 12° |
| 2026-05-04 03:00 | -34.13383 | -71.15433 | 27042 ft | 431 kts | 12° |
| 2026-05-04 03:00 | -34.10615 | -71.14087 | 26560 ft | 428 kts | 12° |
| 2026-05-04 03:00 | -34.07855 | -71.12741 | 26076 ft | 426 kts | 13° |
| 2026-05-04 03:01 | -34.05080 | -71.11383 | 25591 ft | 425 kts | 12° |
| 2026-05-04 03:01 | -34.02344 | -71.10050 | 25106 ft | 423 kts | 12° |
| 2026-05-04 03:01 | -33.99613 | -71.08722 | 24612 ft | 422 kts | 12° |
| 2026-05-04 03:01 | -33.96893 | -71.07403 | 24111 ft | 421 kts | 12° |
| 2026-05-04 03:02 | -33.94174 | -71.06086 | 23560 ft | 421 kts | 12° |
| 2026-05-04 03:02 | -33.91462 | -71.04774 | 22989 ft | 419 kts | 13° |
| 2026-05-04 03:02 | -33.88771 | -71.03474 | 22447 ft | 417 kts | 13° |
| 2026-05-04 03:02 | -33.86077 | -71.02170 | 21919 ft | 416 kts | 14° |
| 2026-05-04 03:03 | -33.83421 | -71.00880 | 21367 ft | 411 kts | 14° |
| 2026-05-04 03:03 | -33.80744 | -70.99584 | 20789 ft | 408 kts | 14° |
| 2026-05-04 03:03 | -33.78126 | -70.98320 | 20268 ft | 405 kts | 14° |
| 2026-05-04 03:03 | -33.75530 | -70.97067 | 19695 ft | 401 kts | 15° |
| 2026-05-04 03:04 | -33.72965 | -70.95827 | 19228 ft | 394 kts | 15° |
| 2026-05-04 03:04 | -33.70416 | -70.94594 | 18685 ft | 391 kts | 15° |
| 2026-05-04 03:04 | -33.67910 | -70.93395 | 18089 ft | 383 kts | 15° |
| 2026-05-04 03:04 | -33.65457 | -70.92234 | 17031 ft | 375 kts | 15° |
| 2026-05-04 03:05 | -33.63066 | -70.91112 | 16120 ft | 364 kts | 15° |
| 2026-05-04 03:05 | -33.60779 | -70.90040 | 15812 ft | 338 kts | 15° |
| 2026-05-04 03:05 | -33.58662 | -70.89043 | 15479 ft | 318 kts | 15° |
| 2026-05-04 03:05 | -33.56617 | -70.88087 | 15026 ft | 305 kts | 15° |
| 2026-05-04 03:06 | -33.54640 | -70.87170 | 14575 ft | 306 kts | 15° |
| 2026-05-04 03:06 | -33.52653 | -70.86254 | 14130 ft | 307 kts | 16° |
| 2026-05-04 03:06 | -33.50647 | -70.85330 | 13640 ft | 308 kts | 16° |
| 2026-05-04 03:06 | -33.48652 | -70.84406 | 13177 ft | 307 kts | 17° |
| 2026-05-04 03:07 | -33.46664 | -70.83480 | 12730 ft | 304 kts | 17° |
| 2026-05-04 03:07 | -33.44703 | -70.82566 | 12313 ft | 302 kts | 17° |
| 2026-05-04 03:07 | -33.42727 | -70.81645 | 11844 ft | 303 kts | 17° |
| 2026-05-04 03:07 | -33.40765 | -70.80730 | 11378 ft | 303 kts | 18° |
| 2026-05-04 03:08 | -33.38806 | -70.79817 | 10874 ft | 301 kts | 18° |
| 2026-05-04 03:08 | -33.36867 | -70.78914 | 10378 ft | 298 kts | 18° |
| 2026-05-04 03:08 | -33.34958 | -70.78023 | 9876 ft | 289 kts | 19° |
| 2026-05-04 03:08 | -33.33124 | -70.77161 | 9338 ft | 279 kts | 19° |
| 2026-05-04 03:09 | -33.31344 | -70.76327 | 8806 ft | 270 kts | 19° |
| 2026-05-04 03:09 | -33.29622 | -70.75524 | 8283 ft | 262 kts | 19° |
| 2026-05-04 03:09 | -33.27945 | -70.74745 | 7774 ft | 256 kts | 19° |
| 2026-05-04 03:09 | -33.26306 | -70.73987 | 7265 ft | 251 kts | 20° |
| 2026-05-04 03:10 | -33.24692 | -70.73241 | 6771 ft | 246 kts | 20° |
| 2026-05-04 03:10 | -33.23108 | -70.72510 | 6265 ft | 242 kts | 20° |
| 2026-05-04 03:10 | -33.21548 | -70.71791 | 5738 ft | 238 kts | 20° |
| 2026-05-04 03:10 | -33.19964 | -70.71348 | 5221 ft | 234 kts | 1° |
| 2026-05-04 03:11 | -33.18382 | -70.71436 | 5011 ft | 218 kts | 355° |
| 2026-05-04 03:11 | -33.16954 | -70.71585 | 5023 ft | 192 kts | 354° |
| 2026-05-04 03:11 | -33.15772 | -70.72023 | 5013 ft | 169 kts | 329° |
| 2026-05-04 03:11 | -33.14938 | -70.72978 | 5007 ft | 169 kts | 303° |
| 2026-05-04 03:12 | -33.14556 | -70.74296 | 5007 ft | 171 kts | 275° |
| 2026-05-04 03:12 | -33.14732 | -70.75686 | 5004 ft | 172 kts | 247° |
| 2026-05-04 03:12 | -33.15424 | -70.76837 | 5005 ft | 172 kts | 225° |
| 2026-05-04 03:12 | -33.16270 | -70.77870 | 5008 ft | 172 kts | 226° |
| 2026-05-04 03:13 | -33.17105 | -70.78893 | 5006 ft | 172 kts | 226° |
| 2026-05-04 03:13 | -33.17939 | -70.79918 | 5006 ft | 172 kts | 226° |
| 2026-05-04 03:13 | -33.18871 | -70.80803 | 4986 ft | 172 kts | 208° |
| 2026-05-04 03:13 | -33.20001 | -70.81240 | 4856 ft | 171 kts | 186° |
| 2026-05-04 03:14 | -33.21177 | -70.81230 | 4665 ft | 169 kts | 176° |
| 2026-05-04 03:14 | -33.22353 | -70.81166 | 4452 ft | 168 kts | 177° |
| 2026-05-04 03:14 | -33.23521 | -70.81104 | 4239 ft | 168 kts | 177° |
| 2026-05-04 03:14 | -33.24685 | -70.81041 | 4011 ft | 167 kts | 177° |
| 2026-05-04 03:15 | -33.25848 | -70.80979 | 3799 ft | 166 kts | 177° |
| 2026-05-04 03:15 | -33.26613 | -70.80938 | 3654 ft | 166 kts | 177° |
| 2026-05-04 03:15 | -33.27762 | -70.80877 | 3445 ft | 165 kts | 177° |
| 2026-05-04 03:15 | -33.28887 | -70.80817 | 3222 ft | 157 kts | 177° |
| 2026-05-04 03:16 | -33.29932 | -70.80761 | 3015 ft | 144 kts | 177° |
| 2026-05-04 03:16 | -33.30913 | -70.80708 | 2818 ft | 136 kts | 177° |
| 2026-05-04 03:16 | -33.31841 | -70.80659 | 2646 ft | 132 kts | 176° |
| 2026-05-04 03:16 | -33.32753 | -70.80610 | 2470 ft | 130 kts | 176° |
| 2026-05-04 03:17 | -33.33657 | -70.80558 | 2318 ft | 129 kts | 176° |
| 2026-05-04 03:17 | -33.34602 | -70.80508 | 2212 ft | 137 kts | 177° |
| 2026-05-04 03:17 | -33.35532 | -70.80471 | 1993 ft | 132 kts | 176° |
| 2026-05-04 03:17 | -33.36472 | -70.80409 | 1780 ft | 137 kts | 175° |
| 2026-05-04 03:18 | -33.37414 | -70.80361 | 1590 ft | 134 kts | 177° |
| 2026-05-04 03:18 | -33.38225 | -70.80319 | 1572 ft | 92 kts | 178° |
| 2026-05-04 03:18 | -33.38692 | -70.80294 | 1575 ft | 47 kts | 177° |
| 2026-05-04 03:18 | -33.39034 | -70.80276 | 1574 ft | 49 kts | 176° |
| 2026-05-04 03:19 | -33.39242 | -70.80243 | 1573 ft | 27 kts | 162° |
| 2026-05-04 03:19 | -33.39390 | -70.80155 | 1570 ft | 14 kts | 148° |
| 2026-05-04 03:19 | -33.39451 | -70.80110 | 1567 ft | 8 kts | 148° |
| 2026-05-04 03:19 | -33.39512 | -70.80048 | 1566 ft | 15 kts | 125° |
| 2026-05-04 03:20 | -33.39542 | -70.79943 | 1565 ft | 9 kts | 138° |
| 2026-05-04 03:20 | -33.39617 | -70.79936 | 1565 ft | 13 kts | 177° |
| 2026-05-04 03:20 | -33.39728 | -70.79930 | 1565 ft | 18 kts | 177° |
| 2026-05-04 03:20 | -33.39837 | -70.79918 | 1565 ft | 7 kts | 150° |
| 2026-05-04 03:21 | -33.39843 | -70.79867 | 1565 ft | 7 kts | 85° |
| 2026-05-04 03:21 | -33.39818 | -70.79825 | 1565 ft | 8 kts | 20° |
| 2026-05-04 03:21 | -33.39761 | -70.79825 | 1565 ft | 6 kts | 357° |
| 2026-05-04 03:21 | -33.39743 | -70.79826 | 1565 ft | 1 kts | 357° |
| 2026-05-04 03:22 | -33.39741 | -70.79827 | 1565 ft | 0 kts | 357° |